Time;durP1;ratioP1;P1;durP2;ratioP2;P2;SDS_P1;SDS_P2;PMS_P1;PMS_P2;Temp;Humidity;BMP_temperature;BMP_pressure;BME280_temperature;BME280_humidity;BME280_pressure;Samples;Min_cycle;Max_cycle;Signal;HPM_P1;HPM_P2
2022/01/07 00:00:12;;;;;;;13.15;8.80;;;;;;;6.95;60.25;101788.66;2568898;23;20202;-73
2022/01/07 00:01:13;;;;;;;14.00;9.68;;;;;;;6.88;60.21;101788.59;2582940;23;20157;-74
2022/01/07 00:02:13;;;;;;;11.73;9.27;;;;;;;6.20;60.52;101677.34;2581317;23;20147;-74
2022/01/07 00:03:15;;;;;;;11.50;9.57;;;;;;;6.30;60.27;101701.44;2582954;23;20154;-73
2022/01/07 00:04:15;;;;;;;12.25;9.35;;;;;;;6.92;60.13;101794.16;2582681;23;20158;-74
2022/01/07 00:05:16;;;;;;;11.10;9.10;;;;;;;6.71;59.91;101761.66;2582833;23;20164;-74
2022/01/07 00:06:17;;;;;;;11.77;9.20;;;;;;;6.55;60.31;101754.78;2582659;23;20153;-74
2022/01/07 00:07:18;;;;;;;12.30;9.27;;;;;;;6.83;60.34;101771.63;2582672;23;20162;-73
2022/01/07 00:08:20;;;;;;;10.63;9.00;;;;;;;7.06;59.49;101808.03;2582711;23;20179;-74
2022/01/07 00:09:20;;;;;;;10.77;9.25;;;;;;;7.06;59.26;101792.31;2582701;23;20148;-74
2022/01/07 00:10:21;;;;;;;10.67;8.90;;;;;;;7.12;59.89;101798.28;2581476;23;20222;-73
2022/01/07 00:11:22;;;;;;;10.25;8.80;;;;;;;7.14;59.12;101801.44;2582857;23;20528;-73
2022/01/07 00:12:23;;;;;;;11.80;9.10;;;;;;;7.11;59.04;101799.44;2582623;23;20151;-73
2022/01/07 00:13:25;;;;;;;10.60;8.43;;;;;;;7.07;59.85;101796.66;2582918;23;20184;-73
2022/01/07 00:14:25;;;;;;;12.38;8.88;;;;;;;6.98;60.03;101800.91;2582785;23;20151;-74
2022/01/07 00:15:27;;;;;;;11.47;8.17;;;;;;;6.65;59.81;101754.91;2569303;23;20187;-74
2022/01/07 00:16:27;;;;;;;10.88;9.00;;;;;;;6.93;59.43;101770.94;2569218;23;20506;-73
2022/01/07 00:17:28;;;;;;;10.07;8.80;;;;;;;6.43;59.52;101694.50;2582562;23;20162;-73
2022/01/07 00:18:29;;;;;;;10.40;8.90;;;;;;;6.96;60.11;101793.00;2582749;23;20150;-73
2022/01/07 00:19:29;;;;;;;10.27;8.32;;;;;;;7.01;59.55;101784.38;2582630;23;20167;-73
2022/01/07 00:20:30;;;;;;;10.23;8.77;;;;;;;6.82;59.41;101757.03;2581995;23;20159;-74
2022/01/07 00:21:30;;;;;;;9.43;8.47;;;;;;;6.94;60.01;101780.78;2582709;23;20185;-73
2022/01/07 00:22:31;;;;;;;12.97;9.53;;;;;;;6.94;59.81;101776.06;2582867;23;20498;-74
2022/01/07 00:23:31;;;;;;;13.87;9.13;;;;;;;6.83;60.09;101760.59;2582886;23;20151;-73
2022/01/07 00:24:32;;;;;;;11.23;8.47;;;;;;;6.86;59.97;101782.66;2582887;23;20159;-74
2022/01/07 00:25:32;;;;;;;11.33;8.70;;;;;;;6.82;60.44;101778.31;2582633;23;20228;-74
2022/01/07 00:26:33;;;;;;;9.73;8.73;;;;;;;6.82;60.36;101776.31;2582574;23;20182;-72
2022/01/07 00:27:34;;;;;;;11.00;9.23;;;;;;;6.60;60.54;101759.97;2582587;23;20298;-73
2022/01/07 00:28:34;;;;;;;10.57;9.40;;;;;;;5.92;60.28;101652.28;2582716;23;20589;-73
2022/01/07 00:29:35;;;;;;;11.13;9.20;;;;;;;6.51;60.47;101741.00;2582649;23;20229;-73
2022/01/07 00:30:36;;;;;;;11.20;8.93;;;;;;;6.11;60.54;101680.38;2568602;23;20183;-73
2022/01/07 00:31:37;;;;;;;10.43;9.23;;;;;;;6.07;60.39;101685.09;2569482;23;20159;-73
2022/01/07 00:32:38;;;;;;;13.73;9.27;;;;;;;6.38;60.42;101731.44;2582652;23;20201;-74
2022/01/07 00:33:39;;;;;;;11.87;8.97;;;;;;;6.36;60.51;101733.75;2582528;23;20154;-74
2022/01/07 00:34:39;;;;;;;11.80;9.57;;;;;;;6.83;60.46;101801.94;2582457;23;20155;-74
2022/01/07 00:35:40;;;;;;;12.03;9.17;;;;;;;6.69;59.95;101777.78;2582260;23;20235;-73
2022/01/07 00:36:40;;;;;;;11.57;9.63;;;;;;;6.48;60.37;101758.28;2582423;23;20548;-73
2022/01/07 00:37:41;;;;;;;12.27;9.53;;;;;;;6.79;60.29;101806.59;2569068;23;20662;-73
2022/01/07 00:38:42;;;;;;;13.47;9.57;;;;;;;6.36;60.08;101733.75;2569375;23;20197;-74
2022/01/07 00:39:42;;;;;;;11.20;9.70;;;;;;;6.88;59.85;101798.84;2582415;23;20225;-73
2022/01/07 00:40:43;;;;;;;12.63;9.40;;;;;;;6.89;60.39;101808.69;2581916;23;20151;-73
2022/01/07 00:41:43;;;;;;;11.57;9.40;;;;;;;6.84;60.63;101806.25;2582498;23;20164;-73
2022/01/07 00:42:51;;;;;;;13.43;10.20;;;;;;;6.85;60.34;101799.56;2582581;23;20197;-73
2022/01/07 00:43:51;;;;;;;12.98;9.95;;;;;;;6.83;60.71;101797.19;2582601;23;20134;-74
2022/01/07 00:44:52;;;;;;;11.80;9.50;;;;;;;6.81;60.44;101793.25;2582855;23;20177;-73
2022/01/07 00:45:52;;;;;;;12.50;10.13;;;;;;;6.78;60.16;101797.56;2582536;23;20234;-73
2022/01/07 00:46:53;;;;;;;10.87;9.60;;;;;;;6.75;60.70;101803.00;2582805;23;20212;-72
2022/01/07 00:47:55;;;;;;;12.97;9.90;;;;;;;5.22;60.43;101546.91;2582532;23;20170;-73
2022/01/07 00:48:56;;;;;;;11.75;9.75;;;;;;;6.08;60.61;101705.13;2582782;23;20530;-73
2022/01/07 00:49:58;;;;;;;12.27;10.20;;;;;;;6.74;60.70;101802.25;2568416;23;20182;-73
2022/01/07 00:50:58;;;;;;;12.10;9.68;;;;;;;6.70;60.50;101786.81;2557083;23;20544;-73
2022/01/07 00:52:01;;;;;;;11.30;9.50;;;;;;;6.71;60.81;101800.22;2569417;23;20182;-73
2022/01/07 00:53:01;;;;;;;15.82;9.95;;;;;;;6.08;60.16;101703.16;2582065;23;20150;-72
2022/01/07 00:54:02;;;;;;;11.47;9.67;;;;;;;6.12;60.62;101722.47;2582508;23;20631;-73
2022/01/07 00:55:03;;;;;;;11.83;9.77;;;;;;;6.73;60.37;101797.91;2582361;23;20150;-73
2022/01/07 00:56:04;;;;;;;14.32;10.15;;;;;;;6.73;60.33;101797.91;2582434;23;20226;-73
2022/01/07 00:57:05;;;;;;;11.30;9.50;;;;;;;6.27;60.43;101726.97;2582738;23;20162;-74
2022/01/07 00:58:05;;;;;;;12.33;9.57;;;;;;;6.72;60.79;101798.28;2582372;23;20617;-73
2022/01/07 00:59:06;;;;;;;12.13;9.77;;;;;;;6.66;59.89;101789.53;2582763;23;20495;-73
2022/01/07 01:00:12;;;;;;;11.27;9.57;;;;;;;6.73;60.34;101795.16;2581525;23;20159;-73
2022/01/07 01:01:13;;;;;;;12.18;8.70;;;;;;;6.77;60.49;101790.44;2582694;23;20139;-74
2022/01/07 01:02:14;;;;;;;10.67;9.20;;;;;;;5.95;60.26;101677.06;2569132;23;20172;-73
2022/01/07 01:03:15;;;;;;;11.57;9.60;;;;;;;6.02;60.29;101701.94;2569403;23;20165;-72
2022/01/07 01:04:15;;;;;;;12.53;9.47;;;;;;;6.08;60.45;101705.13;2582429;23;20146;-73
2022/01/07 01:05:17;;;;;;;10.43;8.60;;;;;;;6.27;59.63;101721.47;2582672;23;20143;-73
2022/01/07 01:06:17;;;;;;;12.02;9.10;;;;;;;6.71;60.05;101796.69;2582552;23;20237;-73
2022/01/07 01:07:18;;;;;;;11.37;8.67;;;;;;;6.70;59.70;101792.34;2569204;23;20166;-72
2022/01/07 01:08:18;;;;;;;11.33;9.13;;;;;;;6.72;60.01;101801.03;2569199;23;20226;-72
2022/01/07 01:09:19;;;;;;;10.80;8.87;;;;;;;6.53;59.89;101760.69;2582474;23;20597;-73
2022/01/07 01:10:22;;;;;;;12.60;8.63;;;;;;;6.63;60.43;101803.28;2580810;23;20201;-73
2022/01/07 01:11:23;;;;;;;12.13;8.55;;;;;;;6.62;60.46;101796.19;2581832;23;20146;-74
2022/01/07 01:12:23;;;;;;;10.40;8.90;;;;;;;6.61;60.82;101800.13;2582496;23;20238;-73
2022/01/07 01:13:24;;;;;;;11.93;9.30;;;;;;;6.41;60.39;101757.41;2569249;23;20194;-73
2022/01/07 01:14:24;;;;;;;11.00;8.60;;;;;;;6.68;60.10;101789.97;2569264;23;20563;-73
2022/01/07 01:15:26;;;;;;;11.77;9.07;;;;;;;6.75;59.94;101801.06;2582474;23;20517;-73
2022/01/07 01:16:27;;;;;;;12.50;8.90;;;;;;;6.71;59.67;101786.44;2582509;23;20155;-73
2022/01/07 01:17:27;;;;;;;12.47;9.03;;;;;;;6.67;60.37;101793.09;2582231;23;20153;-73
2022/01/07 01:18:28;;;;;;;10.27;8.33;;;;;;;6.03;60.13;101694.44;2582418;23;20191;-73
2022/01/07 01:19:28;;;;;;;12.47;9.20;;;;;;;6.66;59.96;101786.03;2582175;23;20177;-74
2022/01/07 01:20:31;;;;;;;12.43;8.90;;;;;;;6.60;60.16;101768.22;2581528;23;20612;-73
2022/01/07 01:21:33;;;;;;;11.48;9.30;;;;;;;5.90;60.28;101671.91;2569087;23;20160;-73
2022/01/07 01:22:34;;;;;;;10.63;8.60;;;;;;;6.27;60.08;101725.03;2569414;23;20546;-73
2022/01/07 01:23:34;;;;;;;14.23;8.93;;;;;;;6.71;60.46;101780.16;2581814;23;20182;-73
2022/01/07 01:24:35;;;;;;;10.93;9.00;;;;;;;6.00;60.32;101689.72;2582107;23;20537;-73
2022/01/07 01:25:35;;;;;;;11.10;8.63;;;;;;;6.61;60.46;101769.84;2582458;23;20151;-74
2022/01/07 01:26:36;;;;;;;9.93;8.77;;;;;;;6.61;60.09;101762.34;2582503;23;20214;-73
2022/01/07 01:27:37;;;;;;;13.57;9.03;;;;;;;6.57;60.56;101756.00;2581028;23;20218;-73
2022/01/07 01:28:37;;;;;;;11.57;8.83;;;;;;;6.63;60.09;101759.22;2581721;23;20158;-72
2022/01/07 01:29:38;;;;;;;11.90;8.90;;;;;;;6.14;60.58;101682.41;2582335;23;20158;-74
2022/01/07 01:30:38;;;;;;;12.43;8.80;;;;;;;6.65;60.00;101754.91;2581440;23;20604;-74
2022/01/07 01:31:39;;;;;;;11.97;8.33;;;;;;;6.51;60.58;101734.72;2582611;23;20154;-73
2022/01/07 01:32:40;;;;;;;10.30;8.97;;;;;;;6.59;60.90;101747.38;2582686;23;20228;-73
2022/01/07 01:33:40;;;;;;;10.70;8.70;;;;;;;5.89;60.97;101655.78;2569318;23;20182;-73
2022/01/07 01:34:41;;;;;;;12.83;8.50;;;;;;;5.88;60.36;101654.97;2569243;23;20213;-73
2022/01/07 01:35:41;;;;;;;10.00;8.43;;;;;;;6.39;60.62;101737.72;2582343;23;20264;-73
2022/01/07 01:36:42;;;;;;;11.57;8.33;;;;;;;6.51;60.42;101762.25;2582520;23;20174;-73
2022/01/07 01:37:43;;;;;;;9.23;8.00;;;;;;;6.21;60.32;101704.47;2582003;23;20560;-73
2022/01/07 01:38:43;;;;;;;10.63;8.57;;;;;;;6.42;60.30;101750.75;2582383;23;20301;-73
2022/01/07 01:39:44;;;;;;;9.97;8.03;;;;;;;6.61;60.55;101764.31;2582216;23;20587;-73
2022/01/07 01:40:44;;;;;;;9.97;8.10;;;;;;;6.04;60.40;101679.50;2582397;23;20664;-73
2022/01/07 01:41:45;;;;;;;11.43;8.90;;;;;;;6.39;60.08;101730.25;2582424;23;20229;-73
2022/01/07 01:42:48;;;;;;;11.80;8.67;;;;;;;6.63;60.36;101776.56;2582585;23;20158;-73
2022/01/07 01:43:49;;;;;;;12.50;8.00;;;;;;;6.61;59.78;101775.34;2582464;23;20163;-73
2022/01/07 01:44:49;;;;;;;10.50;8.53;;;;;;;6.54;60.17;101772.50;2582549;23;20605;-73
2022/01/07 01:45:50;;;;;;;9.80;8.40;;;;;;;6.54;60.42;101770.53;2582503;23;20174;-73
2022/01/07 01:46:51;;;;;;;10.70;8.80;;;;;;;6.57;60.38;101763.50;2582574;23;20599;-72
2022/01/07 01:47:52;;;;;;;11.53;9.00;;;;;;;6.02;60.26;101679.91;2582064;23;20567;-72
2022/01/07 01:48:52;;;;;;;12.27;8.77;;;;;;;6.47;60.01;101773.19;2582794;23;20157;-72
2022/01/07 01:49:53;;;;;;;11.60;8.80;;;;;;;6.41;60.71;101749.94;2583109;23;20179;-72
2022/01/07 01:50:57;;;;;;;12.50;8.63;;;;;;;6.49;60.86;101759.06;2583245;23;20151;-72
2022/01/07 01:51:57;;;;;;;10.88;9.02;;;;;;;6.28;60.41;101732.09;2583252;23;20585;-73
2022/01/07 01:52:58;;;;;;;9.37;8.00;;;;;;;5.96;60.54;101664.13;2583426;23;20181;-74
2022/01/07 01:53:59;;;;;;;11.17;8.50;;;;;;;6.49;60.01;101743.34;2582932;23;20162;-73
2022/01/07 01:54:59;;;;;;;11.00;8.37;;;;;;;6.48;60.24;101758.28;2583071;23;20227;-74
2022/01/07 01:56:00;;;;;;;10.80;8.63;;;;;;;6.51;59.65;101759.50;2569756;23;20163;-72
2022/01/07 01:57:00;;;;;;;10.80;8.73;;;;;;;5.98;60.19;101681.03;2570164;23;20567;-73
2022/01/07 01:58:01;;;;;;;10.50;8.30;;;;;;;6.52;59.66;101761.84;2583111;23;20154;-72
2022/01/07 01:59:02;;;;;;;10.73;7.97;;;;;;;5.68;59.98;101645.28;2583316;23;20148;-73
2022/01/07 02:00:06;;;;;;;10.23;8.40;;;;;;;6.41;59.94;101752.69;2582557;23;20484;-72
2022/01/07 02:01:06;;;;;;;11.63;8.38;;;;;;;5.92;60.24;101679.78;2583332;23;20500;-72
2022/01/07 02:02:07;;;;;;;11.57;8.90;;;;;;;6.46;60.14;101768.88;2583337;23;20146;-74
2022/01/07 02:03:08;;;;;;;9.47;8.07;;;;;;;5.99;60.13;101702.66;2583530;23;20152;-73
2022/01/07 02:04:08;;;;;;;11.53;8.53;;;;;;;5.64;59.50;101655.44;2583056;23;20151;-73
2022/01/07 02:05:09;;;;;;;12.93;8.80;;;;;;;6.45;60.15;101783.00;2583520;23;20175;-73
2022/01/07 02:06:10;;;;;;;13.25;9.05;;;;;;;6.16;59.69;101709.56;2569634;23;20164;-73
2022/01/07 02:07:14;;;;;;;10.73;8.07;;;;;;;6.52;59.50;101770.09;2570154;23;20175;-73
2022/01/07 02:08:15;;;;;;;10.77;8.90;;;;;;;6.55;59.93;101765.81;2583176;23;20672;-74
2022/01/07 02:09:16;;;;;;;10.85;8.13;;;;;;;6.50;59.94;101761.44;2583213;23;20594;-74
2022/01/07 02:10:17;;;;;;;12.73;8.68;;;;;;;5.96;59.71;101699.88;2581984;23;20155;-73
2022/01/07 02:11:18;;;;;;;12.50;8.27;;;;;;;6.58;59.47;101770.56;2583226;23;20162;-73
2022/01/07 02:12:19;;;;;;;11.27;8.23;;;;;;;6.58;59.24;101765.06;2582886;23;20590;-73
2022/01/07 02:13:19;;;;;;;11.03;8.00;;;;;;;6.48;59.24;101750.03;2583167;23;20227;-74
2022/01/07 02:14:20;;;;;;;11.00;8.47;;;;;;;5.84;58.99;101656.13;2583247;23;20584;-74
2022/01/07 02:15:20;;;;;;;12.00;8.67;;;;;;;6.64;59.30;101775.38;2583192;23;20184;-74
2022/01/07 02:16:26;;;;;;;10.07;8.00;;;;;;;6.68;59.31;101775.41;2582986;23;20655;-73
2022/01/07 02:17:27;;;;;;;9.68;7.80;;;;;;;6.00;58.93;101681.47;2582912;23;20139;-74
2022/01/07 02:18:27;;;;;;;10.63;8.03;;;;;;;6.67;59.40;101782.88;2583188;23;20165;-72
2022/01/07 02:19:30;;;;;;;10.27;8.23;;;;;;;6.37;58.90;101732.59;2583020;23;20260;-73
2022/01/07 02:20:31;;;;;;;9.20;7.93;;;;;;;6.53;58.45;101771.72;2582876;23;20162;-73
2022/01/07 02:21:36;;;;;;;11.80;8.00;;;;;;;6.67;58.69;101791.13;2583176;23;20159;-73
2022/01/07 02:22:37;;;;;;;10.57;8.35;;;;;;;5.93;58.80;101686.84;2583340;23;20145;-73
2022/01/07 02:23:37;;;;;;;11.10;8.33;;;;;;;6.52;58.82;101786.63;2583419;23;20234;-73
2022/01/07 02:24:38;;;;;;;12.13;8.50;;;;;;;6.60;59.03;101795.78;2569998;23;20634;-74
2022/01/07 02:25:38;;;;;;;9.67;8.23;;;;;;;6.60;58.90;101796.56;2569746;23;20163;-73
2022/01/07 02:26:39;;;;;;;9.70;7.50;;;;;;;6.62;58.85;101798.97;2582402;23;20613;-74
2022/01/07 02:27:42;;;;;;;9.50;7.70;;;;;;;6.68;58.86;101802.94;2582858;23;20161;-74
2022/01/07 02:28:43;;;;;;;11.40;8.25;;;;;;;6.73;58.62;101797.91;2581974;23;20159;-74
2022/01/07 02:29:47;;;;;;;10.97;8.50;;;;;;;6.68;58.88;101786.44;2569322;23;20170;-74
2022/01/07 02:30:47;;;;;;;10.82;7.95;;;;;;;6.67;58.65;101787.59;2569843;23;20318;-72
2022/01/07 02:31:49;;;;;;;10.17;8.00;;;;;;;6.58;58.65;101790.66;2582481;23;20151;-73
2022/01/07 02:32:50;;;;;;;12.15;8.48;;;;;;;6.70;58.78;101803.34;2583220;23;20179;-72
2022/01/07 02:33:50;;;;;;;11.50;8.02;;;;;;;5.34;58.78;101598.91;2569426;23;20156;-73
2022/01/07 02:34:51;;;;;;;10.57;8.13;;;;;;;5.80;58.69;101658.81;2569816;23;20211;-73
2022/01/07 02:35:51;;;;;;;11.77;8.43;;;;;;;6.46;58.52;101760.59;2582819;23;20179;-73
2022/01/07 02:36:52;;;;;;;9.47;7.90;;;;;;;6.08;59.02;101716.94;2583270;23;20600;-73
2022/01/07 02:37:53;;;;;;;9.60;8.23;;;;;;;6.68;59.27;101798.25;2583078;23;20150;-73
2022/01/07 02:38:54;;;;;;;10.77;8.10;;;;;;;6.76;58.46;101797.13;2583150;23;20151;-74
2022/01/07 02:39:54;;;;;;;10.00;8.00;;;;;;;6.58;58.49;101770.56;2582169;23;20390;-74
2022/01/07 02:40:55;;;;;;;11.63;8.53;;;;;;;6.80;58.83;101819.19;2569152;23;20163;-73
2022/01/07 02:41:55;;;;;;;11.43;8.43;;;;;;;6.54;58.56;101776.06;2569864;23;20202;-72
2022/01/07 02:42:56;;;;;;;12.70;9.10;;;;;;;6.81;58.55;101812.53;2583200;23;20246;-74
2022/01/07 02:43:57;;;;;;;11.20;8.37;;;;;;;6.85;58.77;101800.38;2582782;23;20155;-74
2022/01/07 02:44:58;;;;;;;10.55;8.40;;;;;;;6.68;58.33;101764.38;2583085;23;20155;-73
2022/01/07 02:45:59;;;;;;;13.83;8.53;;;;;;;6.55;58.09;101749.28;2582977;23;20697;-72
2022/01/07 02:46:59;;;;;;;11.53;8.07;;;;;;;6.46;58.20;101746.84;2583039;23;20177;-72
2022/01/07 02:48:02;;;;;;;11.87;9.53;;;;;;;6.73;58.31;101797.91;2583038;23;20151;-73
2022/01/07 02:49:10;;;;;;;11.30;8.90;;;;;;;6.19;58.61;101725.28;2569561;23;20160;-73
2022/01/07 02:50:11;;;;;;;10.18;8.43;;;;;;;6.36;58.71;101735.72;2570620;23;20151;-74
2022/01/07 02:51:12;;;;;;;11.13;8.97;;;;;;;6.33;58.58;101725.47;2583203;23;20155;-74
2022/01/07 02:52:12;;;;;;;11.77;8.77;;;;;;;6.75;58.73;101805.78;2582699;23;20165;-73
2022/01/07 02:53:12;;;;;;;11.67;8.43;;;;;;;6.77;58.71;101803.44;2583000;23;20146;-73
2022/01/07 02:54:14;;;;;;;11.97;8.63;;;;;;;6.71;58.43;101802.22;2582727;23;20147;-73
2022/01/07 02:55:15;;;;;;;12.88;9.07;;;;;;;6.44;59.03;101773.97;2583130;23;20182;-74
2022/01/07 02:56:16;;;;;;;12.00;8.88;;;;;;;6.58;59.63;101801.69;2582737;23;20153;-73
2022/01/07 02:57:17;;;;;;;10.68;8.95;;;;;;;6.58;58.68;101779.66;2582806;23;20151;-74
2022/01/07 02:58:17;;;;;;;13.37;8.90;;;;;;;6.68;59.10;101798.25;2582787;23;20182;-73
2022/01/07 02:59:18;;;;;;;11.80;9.43;;;;;;;6.62;59.15;101802.47;2582299;23;20230;-74
2022/01/07 03:00:20;;;;;;;12.97;9.10;;;;;;;6.21;59.14;101729.25;2581864;23;20170;-73
2022/01/07 03:01:20;;;;;;;12.15;9.63;;;;;;;6.55;59.09;101785.09;2583183;23;20151;-73
2022/01/07 03:02:21;;;;;;;11.07;9.40;;;;;;;6.66;58.87;101808.84;2582889;23;20153;-73
2022/01/07 03:03:21;;;;;;;11.13;9.20;;;;;;;6.68;59.00;101814.78;2583072;23;20157;-74
2022/01/07 03:04:23;;;;;;;13.60;9.57;;;;;;;6.62;59.07;101819.00;2582907;23;20170;-73
2022/01/07 03:05:24;;;;;;;14.63;9.93;;;;;;;6.30;59.51;101784.03;2583027;23;20470;-73
2022/01/07 03:06:25;;;;;;;13.60;9.10;;;;;;;5.99;59.48;101729.38;2582877;23;20153;-73
2022/01/07 03:07:25;;;;;;;12.87;9.70;;;;;;;5.71;59.71;101718.81;2582941;23;20172;-73
2022/01/07 03:08:26;;;;;;;11.50;10.07;;;;;;;6.30;59.29;101765.53;2582898;23;20500;-73
2022/01/07 03:09:27;;;;;;;13.18;10.07;;;;;;;6.33;59.80;101780.53;2582840;23;20589;-73
2022/01/07 03:10:32;;;;;;;10.43;9.13;;;;;;;6.60;58.94;101812.28;2582133;23;20199;-73
2022/01/07 03:11:33;;;;;;;13.45;9.48;;;;;;;6.61;59.83;101814.69;2582791;23;20161;-72
2022/01/07 03:12:33;;;;;;;12.00;9.43;;;;;;;6.50;59.69;101788.19;2569514;23;20171;-74
2022/01/07 03:13:34;;;;;;;11.10;9.40;;;;;;;6.63;59.77;101806.03;2569680;23;20180;-73
2022/01/07 03:14:34;;;;;;;11.87;9.27;;;;;;;6.62;59.67;101807.22;2583251;23;20151;-73
2022/01/07 03:15:37;;;;;;;12.33;9.50;;;;;;;6.59;59.80;101808.75;2582939;23;20259;-73
2022/01/07 03:16:41;;;;;;;11.63;9.70;;;;;;;6.60;59.92;101806.78;2582578;23;20680;-74
2022/01/07 03:17:42;;;;;;;11.57;8.82;;;;;;;6.64;59.41;101824.16;2582598;23;20668;-73
2022/01/07 03:18:43;;;;;;;11.77;9.73;;;;;;;6.62;59.59;101821.75;2582908;23;20601;-74
2022/01/07 03:19:43;;;;;;;11.47;8.90;;;;;;;6.35;59.91;101783.72;2582457;23;20510;-73
2022/01/07 03:20:44;;;;;;;12.07;9.23;;;;;;;6.51;59.61;101812.59;2569032;23;20249;-73
2022/01/07 03:21:44;;;;;;;12.50;9.23;;;;;;;6.12;59.28;101750.00;2569682;23;20246;-73
2022/01/07 03:22:46;;;;;;;12.57;9.60;;;;;;;6.58;59.43;101825.66;2582946;23;20174;-73
2022/01/07 03:23:46;;;;;;;11.45;9.65;;;;;;;6.56;59.29;101826.03;2582893;23;20711;-72
2022/01/07 03:24:47;;;;;;;12.00;9.13;;;;;;;6.54;59.92;101833.88;2582935;23;20668;-73
2022/01/07 03:25:47;;;;;;;12.13;9.17;;;;;;;6.16;59.63;101762.63;2583246;23;20151;-72
2022/01/07 03:26:48;;;;;;;11.83;9.03;;;;;;;6.25;59.13;101798.13;2582912;23;20531;-73
2022/01/07 03:27:48;;;;;;;10.80;9.13;;;;;;;6.47;59.93;101822.00;2582606;23;20596;-72
2022/01/07 03:28:49;;;;;;;10.87;9.13;;;;;;;5.59;60.04;101707.25;2582980;23;20174;-74
2022/01/07 03:29:50;;;;;;;11.70;9.43;;;;;;;6.27;59.98;101804.84;2582325;23;20151;-74
2022/01/07 03:30:50;;;;;;;11.03;9.60;;;;;;;6.49;59.54;101827.91;2582345;23;20224;-74
2022/01/07 03:31:51;;;;;;;12.77;9.93;;;;;;;6.48;60.01;101829.88;2582777;23;20157;-73
2022/01/07 03:32:51;;;;;;;12.80;9.10;;;;;;;6.32;59.52;101804.53;2582910;23;20493;-72
2022/01/07 03:33:52;;;;;;;12.17;9.53;;;;;;;5.88;59.79;101729.25;2582765;23;20178;-73
2022/01/07 03:34:53;;;;;;;11.30;9.80;;;;;;;6.49;59.43;101816.91;2582892;23;20152;-73
2022/01/07 03:35:54;;;;;;;13.23;9.33;;;;;;;6.49;59.51;101814.94;2582853;23;20257;-74
2022/01/07 03:36:54;;;;;;;10.97;8.90;;;;;;;6.30;59.33;101782.06;2582958;23;20237;-73
2022/01/07 03:37:55;;;;;;;12.40;9.10;;;;;;;5.96;59.22;101749.41;2569304;23;20159;-73
2022/01/07 03:38:57;;;;;;;11.93;9.57;;;;;;;6.46;59.71;101812.94;2569511;23;20155;-74
2022/01/07 03:39:57;;;;;;;10.73;9.23;;;;;;;5.82;59.66;101714.25;2582456;23;20155;-72
2022/01/07 03:40:58;;;;;;;11.83;9.40;;;;;;;6.51;60.00;101825.59;2582826;23;20236;-72
2022/01/07 03:41:58;;;;;;;12.67;10.47;;;;;;;6.45;59.91;101824.31;2582922;23;20159;-73
2022/01/07 03:42:59;;;;;;;10.67;8.70;;;;;;;6.46;59.89;101829.44;2583073;23;20159;-73
2022/01/07 03:44:00;;;;;;;10.43;8.77;;;;;;;6.42;59.91;101814.84;2582673;23;20608;-73
2022/01/07 03:45:01;;;;;;;11.70;9.27;;;;;;;6.48;59.81;101824.38;2582122;23;20201;-73
2022/01/07 03:46:02;;;;;;;12.13;9.15;;;;;;;6.33;60.09;101797.84;2569366;23;20199;-74
2022/01/07 03:47:03;;;;;;;10.20;8.93;;;;;;;6.51;59.54;101822.84;2569586;23;20226;-74
2022/01/07 03:48:04;;;;;;;12.73;9.10;;;;;;;6.53;59.83;101828.75;2582490;23;20154;-73
2022/01/07 03:49:05;;;;;;;13.13;9.33;;;;;;;6.45;59.25;101818.81;2582692;23;20681;-74
2022/01/07 03:50:07;;;;;;;10.40;8.90;;;;;;;6.57;59.14;101824.09;2582071;23;20392;-73
2022/01/07 03:51:08;;;;;;;11.50;9.40;;;;;;;6.18;59.23;101779.56;2582840;23;20589;-73
2022/01/07 03:52:08;;;;;;;11.83;9.47;;;;;;;6.56;59.26;101828.78;2582562;23;20538;-72
2022/01/07 03:53:09;;;;;;;11.03;8.73;;;;;;;6.47;59.07;101831.03;2582728;23;20518;-73
2022/01/07 03:54:09;;;;;;;11.27;8.93;;;;;;;6.01;59.30;101777.38;2569385;23;20163;-73
2022/01/07 03:55:13;;;;;;;12.53;9.40;;;;;;;6.48;59.44;101834.59;2569496;23;20148;-73
2022/01/07 03:56:17;;;;;;;11.43;8.65;;;;;;;6.17;59.21;101794.50;2582833;23;20204;-74
2022/01/07 03:57:18;;;;;;;10.68;8.50;;;;;;;6.07;59.33;101800.66;2569339;23;20198;-73
2022/01/07 03:58:20;;;;;;;12.65;9.40;;;;;;;6.49;59.22;101842.47;2569523;23;20148;-73
2022/01/07 03:59:20;;;;;;;10.60;9.13;;;;;;;6.48;59.21;101851.91;2582718;23;20150;-73
2022/01/07 04:00:24;;;;;;;11.10;9.50;;;;;;;6.54;59.07;101852.38;2582096;23;20589;-73
2022/01/07 04:01:24;;;;;;;12.43;9.13;;;;;;;6.15;58.77;101790.53;2582809;23;20153;-73
2022/01/07 04:02:25;;;;;;;11.77;9.00;;;;;;;6.37;58.99;101823.47;2582504;23;20607;-73
2022/01/07 04:03:25;;;;;;;13.47;9.47;;;;;;;6.17;59.01;101804.72;2582918;23;20584;-73
2022/01/07 04:04:26;;;;;;;9.87;8.70;;;;;;;6.60;59.06;101857.16;2582589;23;20272;-73
2022/01/07 04:05:27;;;;;;;11.13;9.27;;;;;;;6.35;58.13;101814.78;2582006;23;20222;-73
2022/01/07 04:06:27;;;;;;;10.03;8.80;;;;;;;6.50;58.43;101851.53;2582165;23;20161;-74
2022/01/07 04:07:30;;;;;;;11.63;9.03;;;;;;;6.52;58.51;101863.75;2582534;23;20193;-73
2022/01/07 04:08:31;;;;;;;10.82;8.80;;;;;;;6.59;58.61;101866.59;2581950;23;20596;-73
2022/01/07 04:09:31;;;;;;;10.70;8.87;;;;;;;6.54;58.72;101844.91;2569282;23;20605;-73
2022/01/07 04:10:32;;;;;;;12.00;9.20;;;;;;;5.99;57.95;101776.16;2568886;23;20246;-73
2022/01/07 04:11:33;;;;;;;11.48;9.38;;;;;;;6.57;58.19;101865.41;2582644;23;20204;-73
2022/01/07 04:12:33;;;;;;;10.43;8.33;;;;;;;6.56;58.71;101855.56;2582632;23;20284;-73
2022/01/07 04:13:34;;;;;;;11.53;9.13;;;;;;;6.65;58.26;101854.06;2582572;23;20162;-73
2022/01/07 04:14:34;;;;;;;10.67;8.93;;;;;;;6.27;57.98;101793.84;2582686;23;20154;-73
2022/01/07 04:15:35;;;;;;;11.83;9.47;;;;;;;6.72;57.53;101864.41;2582651;23;20684;-73
2022/01/07 04:16:36;;;;;;;10.87;9.00;;;;;;;6.65;58.26;101845.00;2582509;23;20204;-73
2022/01/07 04:17:39;;;;;;;11.70;9.33;;;;;;;6.71;58.32;101862.81;2582492;23;20177;-73
2022/01/07 04:18:40;;;;;;;11.00;9.10;;;;;;;6.55;58.18;101843.72;2582501;23;20155;-74
2022/01/07 04:19:40;;;;;;;10.70;9.60;;;;;;;6.73;58.08;101869.53;2582210;23;20182;-74
2022/01/07 04:20:41;;;;;;;10.83;9.33;;;;;;;6.28;58.07;101819.41;2568686;23;20182;-74
2022/01/07 04:21:42;;;;;;;11.13;9.10;;;;;;;6.66;57.78;101879.69;2569237;23;20176;-73
2022/01/07 04:22:43;;;;;;;10.90;9.40;;;;;;;6.06;58.23;101792.78;2581929;23;20235;-73
2022/01/07 04:23:43;;;;;;;10.40;9.13;;;;;;;6.79;57.77;101872.72;2581903;23;20155;-73
2022/01/07 04:24:44;;;;;;;10.87;9.63;;;;;;;6.88;57.68;101879.50;2582585;23;20155;-73
2022/01/07 04:25:44;;;;;;;10.67;9.47;;;;;;;6.44;57.38;101807.00;2582619;23;20148;-73
2022/01/07 04:26:45;;;;;;;11.90;9.27;;;;;;;6.86;57.50;101872.78;2582525;23;20492;-73
2022/01/07 04:27:48;;;;;;;10.47;9.30;;;;;;;6.78;57.61;101847.16;2582230;23;20158;-74
2022/01/07 04:28:48;;;;;;;10.82;9.40;;;;;;;7.08;57.01;101875.41;2582417;23;20655;-73
2022/01/07 04:29:49;;;;;;;11.70;9.33;;;;;;;7.03;57.09;101875.75;2582401;23;20549;-74
2022/01/07 04:30:49;;;;;;;11.30;9.60;;;;;;;6.91;57.46;101877.97;2582006;23;20158;-74
2022/01/07 04:31:50;;;;;;;12.03;9.47;;;;;;;6.93;57.34;101870.91;2569183;23;20163;-73
2022/01/07 04:32:52;;;;;;;11.07;9.30;;;;;;;6.91;57.74;101875.22;2569322;23;20507;-73
2022/01/07 04:33:53;;;;;;;11.43;9.57;;;;;;;6.93;57.59;101872.91;2581613;23;20271;-73
2022/01/07 04:34:53;;;;;;;14.87;10.07;;;;;;;6.73;57.30;101869.53;2582760;23;20202;-74
2022/01/07 04:35:55;;;;;;;12.67;9.33;;;;;;;6.99;57.37;101882.41;2582297;23;20269;-73
2022/01/07 04:36:55;;;;;;;14.55;10.52;;;;;;;6.97;57.45;101865.47;2582668;23;20159;-73
2022/01/07 04:37:56;;;;;;;14.73;9.97;;;;;;;6.20;57.09;101740.66;2582376;23;20187;-73
2022/01/07 04:38:56;;;;;;;11.97;9.50;;;;;;;7.08;57.27;101883.66;2582451;23;20250;-73
2022/01/07 04:39:57;;;;;;;11.83;9.70;;;;;;;7.18;57.07;101888.50;2581839;23;20617;-74
2022/01/07 04:40:57;;;;;;;11.80;9.90;;;;;;;7.15;56.62;101881.00;2582553;23;20178;-73
2022/01/07 04:41:59;;;;;;;12.60;9.63;;;;;;;7.21;57.09;101889.72;2582545;23;20250;-73
2022/01/07 04:43:03;;;;;;;12.00;9.52;;;;;;;6.92;56.33;101857.53;2582753;23;20234;-73